createdAt,value
2022-10-19T00:02:40.043Z,14.90
2022-10-19T00:12:41.702Z,14.80
2022-10-19T00:22:43.368Z,14.80
2022-10-19T00:32:44.992Z,14.80
2022-10-19T00:42:46.602Z,14.70
2022-10-19T00:52:48.298Z,14.70
2022-10-19T01:02:49.962Z,14.80
2022-10-19T01:13:11.387Z,14.80
2022-10-19T01:23:40.087Z,14.70
2022-10-19T01:33:59.132Z,14.70
2022-10-19T01:44:17.400Z,14.70
2022-10-19T01:54:21.312Z,14.80
2022-10-19T02:04:24.860Z,14.60
2022-10-19T02:14:39.918Z,14.50
2022-10-19T02:24:41.556Z,14.40
2022-10-19T02:34:43.288Z,14.40
2022-10-19T02:44:47.681Z,14.50
2022-10-19T02:54:49.317Z,14.40
2022-10-19T03:04:50.997Z,14.50
2022-10-19T03:14:52.664Z,14.40
2022-10-19T03:24:54.334Z,14.30
2022-10-19T03:34:55.961Z,14.30
2022-10-19T03:44:57.601Z,14.30
2022-10-19T03:54:59.192Z,14.40
2022-10-19T04:05:00.858Z,14.40
2022-10-19T04:15:02.457Z,14.40
2022-10-19T04:25:04.776Z,14.50
2022-10-19T04:35:07.176Z,14.50
2022-10-19T04:45:09.202Z,14.50
2022-10-19T04:55:10.798Z,14.40
2022-10-19T05:05:13.690Z,14.50
2022-10-19T05:15:15.367Z,14.50
2022-10-19T05:25:17.289Z,14.50
2022-10-19T05:35:21.618Z,14.50
2022-10-19T05:45:24.226Z,14.50
2022-10-19T05:55:26.096Z,14.50
2022-10-19T06:05:27.712Z,14.50
2022-10-19T06:15:32.230Z,14.50
2022-10-19T06:25:35.206Z,14.60
2022-10-19T06:35:37.074Z,14.60
2022-10-19T06:45:38.971Z,14.70
2022-10-19T06:55:40.575Z,14.70
2022-10-19T07:05:42.159Z,14.80
2022-10-19T07:15:43.817Z,14.90
2022-10-19T07:25:45.419Z,15.00
2022-10-19T07:35:47.106Z,14.90
2022-10-19T07:45:48.796Z,15.00
2022-10-19T07:55:50.447Z,15.20
2022-10-19T08:05:52.049Z,15.40
2022-10-19T08:15:53.659Z,15.40
2022-10-19T08:25:59.359Z,15.40
2022-10-19T08:36:03.952Z,15.30
2022-10-19T08:46:33.634Z,15.30
2022-10-19T08:56:52.226Z,15.30
2022-10-19T09:07:17.871Z,15.30
2022-10-19T09:17:20.450Z,15.20
2022-10-19T09:27:28.718Z,15.20
2022-10-19T09:37:31.673Z,15.10
2022-10-19T09:47:40.779Z,15.20
2022-10-19T09:57:47.763Z,15.30
2022-10-19T10:07:55.212Z,15.20
2022-10-19T10:17:58.196Z,15.20
2022-10-19T10:28:20.885Z,15.30
2022-10-19T10:38:26.945Z,15.40
2022-10-19T10:48:42.793Z,15.50
2022-10-19T10:58:51.398Z,15.60
2022-10-19T11:09:20.570Z,15.60
2022-10-19T11:19:27.273Z,15.80
2022-10-19T11:29:34.376Z,15.80
2022-10-19T11:40:03.088Z,15.70
2022-10-19T11:50:31.954Z,15.80
2022-10-19T12:00:56.299Z,15.80
2022-10-19T12:11:03.751Z,15.80
2022-10-19T12:21:13.460Z,15.80
2022-10-19T12:31:15.994Z,15.90
2022-10-19T12:41:56.158Z,15.90
2022-10-19T12:52:02.249Z,15.90
2022-10-19T13:02:22.442Z,15.90
2022-10-19T13:12:25.768Z,16.00
2022-10-19T13:22:28.779Z,16.00
2022-10-19T13:32:43.729Z,16.00
2022-10-19T13:42:45.569Z,16.00
2022-10-19T13:53:12.999Z,16.00
2022-10-19T14:03:26.553Z,16.00
2022-10-19T14:13:28.708Z,16.10
2022-10-19T14:23:33.165Z,16.10
2022-10-19T14:33:38.832Z,16.20
2022-10-19T14:43:40.514Z,16.20
2022-10-19T14:53:58.907Z,16.30
2022-10-19T15:04:01.395Z,16.30
2022-10-19T15:14:06.511Z,16.40
2022-10-19T15:24:27.203Z,16.50
2022-10-19T15:34:30.505Z,16.40
2022-10-19T15:44:45.404Z,16.40
2022-10-19T15:54:50.998Z,16.40
2022-10-19T16:04:53.719Z,16.30
2022-10-19T16:14:55.661Z,16.10
2022-10-19T16:24:57.307Z,15.90
2022-10-19T16:34:58.939Z,15.70
2022-10-19T16:45:01.437Z,15.40
2022-10-19T16:55:03.622Z,15.40
2022-10-19T17:05:05.601Z,15.00
2022-10-19T17:25:29.500Z,14.80
2022-10-19T17:35:33.462Z,14.60
2022-10-19T17:45:35.112Z,14.60
2022-10-19T17:55:37.205Z,14.60
2022-10-19T18:15:40.835Z,14.40
2022-10-19T18:25:53.797Z,14.30
2022-10-19T18:46:00.617Z,14.20
2022-10-19T18:56:04.625Z,13.90
2022-10-19T19:06:09.835Z,13.70
2022-10-19T19:16:11.477Z,13.60
2022-10-19T19:36:17.544Z,13.60
2022-10-19T19:46:20.264Z,13.60
2022-10-19T19:56:21.968Z,13.50
2022-10-19T20:06:25.917Z,13.40
2022-10-19T20:16:33.380Z,13.50
2022-10-19T20:26:35.507Z,13.40
2022-10-19T20:36:37.245Z,13.30
2022-10-19T20:46:38.861Z,13.30
2022-10-19T20:56:41.642Z,13.20
2022-10-19T21:06:46.030Z,13.00
2022-10-19T21:16:47.751Z,12.80
2022-10-19T21:26:49.530Z,12.80
2022-10-19T21:36:51.225Z,12.80
2022-10-19T21:46:52.928Z,12.70
2022-10-19T21:56:56.498Z,12.60
2022-10-19T22:06:59.540Z,12.50
2022-10-19T22:17:01.185Z,12.30
2022-10-19T22:27:03.144Z,12.20
2022-10-19T22:37:04.958Z,12.00
2022-10-19T22:47:06.583Z,11.90
2022-10-19T22:57:08.543Z,11.90
2022-10-19T23:17:16.713Z,11.80
2022-10-19T23:27:18.344Z,11.80
2022-10-19T23:37:19.976Z,11.80
2022-10-19T23:47:21.579Z,11.80
2022-10-19T23:57:23.227Z,11.70
